Time;durP1;ratioP1;P1;durP2;ratioP2;P2;SDS_P1;SDS_P2;PMS_P1;PMS_P2;Temp;Humidity;BMP_temperature;BMP_pressure;BME280_temperature;BME280_humidity;BME280_pressure;Samples;Min_cycle;Max_cycle;Signal;HPM_P1;HPM_P2
2021/05/27 00:00:43;;;;;;;;;;;;;;;19.46;52.07;99595.31;5094312;28;19912;-49
2021/05/27 00:03:09;;;;;;;;;;;;;;;19.69;50.95;99591.31;5094051;28;20011;-50
2021/05/27 00:05:34;;;;;;;;;;;;;;;19.64;51.09;99588.59;5094236;28;19995;-51
2021/05/27 00:07:59;;;;;;;;;;;;;;;19.49;51.71;99581.28;5094175;28;19916;-50
2021/05/27 00:10:25;;;;;;;;;;;;;;;19.25;52.15;99578.28;5094089;28;19962;-52
2021/05/27 00:12:51;;;;;;;;;;;;;;;19.55;51.61;99577.50;5094004;28;19922;-52
2021/05/27 00:15:16;;;;;;;;;;;;;;;19.40;51.57;99582.88;5094041;28;20011;-50
2021/05/27 00:17:42;;;;;;;;;;;;;;;19.46;51.76;99587.22;5094006;28;19912;-52
2021/05/27 00:20:07;;;;;;;;;;;;;;;19.45;51.69;99580.19;5093957;28;20381;-50
2021/05/27 00:22:33;;;;;;;;;;;;;;;18.86;53.33;99568.66;5099113;28;19931;-49
2021/05/27 00:24:58;;;;;;;;;;;;;;;19.05;52.92;99571.69;5114372;28;19912;-49
2021/05/27 00:27:23;;;;;;;;;;;;;;;18.91;53.20;99574.06;5114034;28;19944;-51
2021/05/27 00:29:49;;;;;;;;;;;;;;;19.08;52.54;99571.19;5113763;27;19911;-50
2021/05/27 00:32:14;;;;;;;;;;;;;;;19.08;52.80;99568.50;5102799;28;20347;-49
2021/05/27 00:34:39;;;;;;;;;;;;;;;19.12;52.53;99572.28;5093411;28;19976;-53
2021/05/27 00:37:05;;;;;;;;;;;;;;;19.00;52.59;99569.00;5091849;28;19915;-53
2021/05/27 00:39:30;;;;;;;;;;;;;;;18.84;53.09;99570.81;5093690;28;19912;-52
2021/05/27 00:41:57;;;;;;;;;;;;;;;18.87;53.71;99566.78;5093453;28;20326;-52
2021/05/27 00:44:23;;;;;;;;;;;;;;;18.58;54.83;99569.81;5093417;28;19977;-52
2021/05/27 00:46:49;;;;;;;;;;;;;;;18.85;54.34;99563.50;5093321;28;19916;-52
2021/05/27 00:49:14;;;;;;;;;;;;;;;18.52;55.83;99565.47;5093428;28;19955;-50
2021/05/27 00:51:39;;;;;;;;;;;;;;;18.31;56.37;99554.56;5093080;28;19962;-51
2021/05/27 00:54:05;;;;;;;;;;;;;;;18.41;56.03;99555.69;5093082;28;19913;-50
2021/05/27 00:56:30;;;;;;;;;;;;;;;17.89;57.19;99495.28;5091577;28;19955;-48
2021/05/27 00:58:55;;;;;;;;;;;;;;;18.50;56.31;99543.38;5093205;28;19959;-51
2021/05/27 01:01:21;;;;;;;;;;;;;;;18.74;55.78;99535.69;5093082;28;19916;-52
2021/05/27 01:03:46;;;;;;;;;;;;;;;18.98;54.86;99541.47;5093189;28;19919;-51
2021/05/27 01:06:11;;;;;;;;;;;;;;;18.86;55.54;99536.31;5092902;28;19943;-53
2021/05/27 01:08:37;;;;;;;;;;;;;;;18.57;56.93;99527.78;5092872;28;20376;-50
2021/05/27 01:11:02;;;;;;;;;;;;;;;18.41;58.08;99524.19;5091422;28;19916;-53
2021/05/27 01:13:27;;;;;;;;;;;;;;;18.30;58.29;99519.81;5092587;28;19916;-52
2021/05/27 01:15:53;;;;;;;;;;;;;;;18.66;57.20;99511.94;5092702;28;19934;-51
2021/05/27 01:18:19;;;;;;;;;;;;;;;18.67;57.28;99521.63;5092891;28;20379;-52
2021/05/27 01:20:45;;;;;;;;;;;;;;;18.63;57.33;99515.16;5092513;28;19958;-52
2021/05/27 01:23:10;;;;;;;;;;;;;;;18.71;57.06;99515.44;5103289;28;19994;-50
2021/05/27 01:25:37;;;;;;;;;;;;;;;18.47;57.22;99515.06;5112969;28;20076;-52
2021/05/27 01:28:02;;;;;;;;;;;;;;;18.21;58.07;99516.00;5112899;28;20409;-50
2021/05/27 01:30:27;;;;;;;;;;;;;;;18.40;57.28;99513.69;5113049;28;20002;-52
2021/05/27 01:32:53;;;;;;;;;;;;;;;18.36;56.71;99511.50;5097022;28;20020;-50
2021/05/27 01:35:19;;;;;;;;;;;;;;;18.22;57.82;99504.97;5093468;28;19918;-48
2021/05/27 01:37:45;;;;;;;;;;;;;;;18.66;56.36;99506.56;5092851;28;20382;-52
2021/05/27 01:40:10;;;;;;;;;;;;;;;18.49;56.75;99518.31;5093079;28;19913;-51
2021/05/27 01:42:36;;;;;;;;;;;;;;;18.37;57.40;99512.31;5093089;28;19917;-52
2021/05/27 01:45:01;;;;;;;;;;;;;;;18.23;57.99;99511.16;5093358;28;19949;-50
2021/05/27 01:47:26;;;;;;;;;;;;;;;18.02;58.70;99505.63;5092828;28;19947;-51
2021/05/27 01:49:52;;;;;;;;;;;;;;;17.92;59.43;99503.66;5092987;28;20344;-50
2021/05/27 01:52:17;;;;;;;;;;;;;;;17.93;60.39;99516.06;5093240;28;20391;-49
2021/05/27 01:54:42;;;;;;;;;;;;;;;17.69;60.75;99510.19;5092765;28;19958;-50
2021/05/27 01:57:08;;;;;;;;;;;;;;;18.12;59.70;99504.88;5092676;28;20315;-52
2021/05/27 01:59:33;;;;;;;;;;;;;;;17.87;60.99;99503.63;5092300;28;19923;-52
2021/05/27 02:01:58;;;;;;;;;;;;;;;18.09;60.22;99510.78;5092316;28;19916;-53
2021/05/27 02:04:23;;;;;;;;;;;;;;;18.23;59.58;99509.25;5092528;28;20002;-51
2021/05/27 02:06:49;;;;;;;;;;;;;;;18.59;58.59;99506.78;5092310;28;19923;-53
2021/05/27 02:09:14;;;;;;;;;;;;;;;18.60;58.96;99504.88;5092175;28;19912;-52
2021/05/27 02:11:40;;;;;;;;;;;;;;;18.80;58.24;99512.25;5092136;28;19912;-53
2021/05/27 02:14:06;;;;;;;;;;;;;;;18.82;58.04;99515.53;5092166;28;19931;-53
2021/05/27 02:16:31;;;;;;;;;;;;;;;18.90;58.59;99523.91;5092299;28;19918;-50
2021/05/27 02:18:56;;;;;;;;;;;;;;;19.04;57.37;99518.84;5092328;28;19970;-51
2021/05/27 02:21:22;;;;;;;;;;;;;;;18.91;57.87;99519.34;5092435;28;19963;-52
2021/05/27 02:23:47;;;;;;;;;;;;;;;19.07;57.62;99515.63;5107732;28;20255;-52
2021/05/27 02:26:12;;;;;;;;;;;;;;;18.78;58.59;99515.22;5112342;28;19919;-52
2021/05/27 02:28:37;;;;;;;;;;;;;;;18.33;59.90;99513.91;5112331;28;19946;-50
2021/05/27 02:31:03;;;;;;;;;;;;;;;17.97;61.46;99514.47;5111763;28;19919;-49
2021/05/27 02:33:29;;;;;;;;;;;;;;;18.45;60.26;99517.22;5092048;28;19912;-49
2021/05/27 02:35:54;;;;;;;;;;;;;;;18.52;59.81;99522.34;5091707;28;19968;-52
2021/05/27 02:38:19;;;;;;;;;;;;;;;18.40;60.57;99519.88;5091318;28;19919;-49
2021/05/27 02:40:44;;;;;;;;;;;;;;;18.25;61.15;99523.28;5091040;28;20273;-50
2021/05/27 02:43:10;;;;;;;;;;;;;;;18.07;61.75;99521.00;5091552;28;20068;-49
2021/05/27 02:45:35;;;;;;;;;;;;;;;17.67;63.41;99527.63;5091664;28;19959;-49
2021/05/27 02:48:00;;;;;;;;;;;;;;;17.39;63.18;99522.25;5091464;28;20033;-52
2021/05/27 02:50:26;;;;;;;;;;;;;;;17.12;64.64;99522.25;5091816;28;20356;-52
2021/05/27 02:52:51;;;;;;;;;;;;;;;17.43;63.76;99521.78;5091585;28;20281;-50
2021/05/27 02:55:16;;;;;;;;;;;;;;;17.85;62.51;99515.72;5091564;28;19919;-50
2021/05/27 02:57:41;;;;;;;;;;;;;;;17.86;62.90;99514.63;5091903;28;20002;-48
2021/05/27 03:00:07;;;;;;;;;;;;;;;17.40;64.75;99509.63;5091359;28;19922;-49
2021/05/27 03:02:32;;;;;;;;;;;;;;;17.61;64.16;99513.34;5091741;28;19917;-50
2021/05/27 03:04:57;;;;;;;;;;;;;;;18.02;62.67;99516.38;5091667;28;20343;-49
2021/05/27 03:07:23;;;;;;;;;;;;;;;17.89;62.87;99514.94;5091530;28;19961;-50
2021/05/27 03:09:48;;;;;;;;;;;;;;;17.23;64.63;99516.97;5091228;28;19999;-50
2021/05/27 03:12:13;;;;;;;;;;;;;;;17.16;65.11;99509.13;5091358;28;19922;-49
2021/05/27 03:14:38;;;;;;;;;;;;;;;17.51;63.89;99518.59;5090913;28;19946;-49
2021/05/27 03:17:04;;;;;;;;;;;;;;;17.34;65.13;99510.66;5091684;28;19947;-51
2021/05/27 03:19:29;;;;;;;;;;;;;;;17.51;65.44;99505.97;5091996;28;19912;-48
2021/05/27 03:21:54;;;;;;;;;;;;;;;17.62;64.18;99509.56;5093944;28;19923;-49
2021/05/27 03:24:20;;;;;;;;;;;;;;;17.09;66.24;99505.81;5115625;28;20002;-48
2021/05/27 03:26:46;;;;;;;;;;;;;;;17.50;65.56;99520.50;5115843;28;19969;-49
2021/05/27 03:29:13;;;;;;;;;;;;;;;18.04;63.04;99511.56;5115889;28;19912;-50
2021/05/27 03:31:38;;;;;;;;;;;;;;;17.88;64.18;99502.56;5109309;28;19919;-50
2021/05/27 03:34:03;;;;;;;;;;;;;;;18.25;63.19;99509.00;5095460;28;20288;-52
2021/05/27 03:36:29;;;;;;;;;;;;;;;18.09;63.62;99510.78;5095238;28;20064;-51
2021/05/27 03:38:54;;;;;;;;;;;;;;;18.48;62.56;99505.09;5095244;28;19977;-50
2021/05/27 03:41:19;;;;;;;;;;;;;;;18.93;60.55;99507.22;5095052;28;19951;-51
2021/05/27 03:43:45;;;;;;;;;;;;;;;19.48;58.88;99496.03;5095255;28;19969;-51
2021/05/27 03:46:10;;;;;;;;;;;;;;;19.71;57.92;99495.50;5094986;28;19915;-53
2021/05/27 03:48:35;;;;;;;;;;;;;;;19.59;58.16;99494.97;5094610;28;19923;-49
2021/05/27 03:51:01;;;;;;;;;;;;;;;19.58;57.31;99504.13;5094769;28;19912;-49
2021/05/27 03:53:26;;;;;;;;;;;;;;;19.67;57.16;99509.81;5094801;28;20378;-52
2021/05/27 03:55:51;;;;;;;;;;;;;;;20.13;56.38;99506.31;5094657;28;19912;-50
2021/05/27 04:01:00;;;;;;;;;;;;;;;20.18;55.09;99504.41;5088035;28;19923;-49
2021/05/27 04:03:25;;;;;;;;;;;;;;;20.39;55.21;99510.59;5077341;28;19916;-51
2021/05/27 04:08:35;;;;;;;;;;;;;;;20.04;56.22;99514.94;5074496;28;19970;-49
2021/05/27 04:11:00;;;;;;;;;;;;;;;19.99;56.64;99517.66;5074241;28;19912;-49
2021/05/27 04:13:25;;;;;;;;;;;;;;;20.41;55.34;99516.53;5083747;28;19952;-49
2021/05/27 04:15:51;;;;;;;;;;;;;;;20.65;54.92;99524.03;5074804;28;19923;-50
2021/05/27 04:18:17;;;;;;;;;;;;;;;21.11;53.45;99514.94;5081302;28;19935;-51
2021/05/27 04:20:42;;;;;;;;;;;;;;;21.07;54.42;99512.78;5091158;28;19984;-50
2021/05/27 04:23:08;;;;;;;;;;;;;;;22.04;51.49;99526.75;5102583;28;19916;-52
2021/05/27 04:25:34;;;;;;;;;;;;;;;22.65;50.15;99520.72;5112573;28;19943;-52
2021/05/27 04:27:59;;;;;;;;;;;;;;;22.72;49.32;99519.59;5112649;28;19947;-51
2021/05/27 04:30:25;;;;;;;;;;;;;;;23.22;48.41;99530.91;5111729;28;19920;-53
2021/05/27 04:35:26;;;;;;;;;;;;;;;23.16;46.71;99529.38;5111989;28;20236;-51
2021/05/27 04:37:51;;;;;;;;;;;;;;;23.13;47.31;99532.66;5111857;28;19939;-52
2021/05/27 04:40:16;;;;;;;;;;;;;;;23.18;46.93;99529.88;5112438;28;19954;-52
2021/05/27 04:42:42;;;;;;;;;;;;;;;22.61;47.79;99533.25;5110516;28;19916;-51
2021/05/27 04:45:07;;;;;;;;;;;;;;;21.75;50.15;99537.56;5111975;28;19919;-50
2021/05/27 04:47:33;;;;;;;;;;;;;;;21.85;50.19;99530.16;5112258;28;19919;-53
2021/05/27 04:49:58;;;;;;;;;;;;;;;21.61;50.59;99530.09;5112159;28;19964;-49
2021/05/27 04:52:23;;;;;;;;;;;;;;;22.00;50.22;99531.94;5111585;28;20368;-51
2021/05/27 04:54:48;;;;;;;;;;;;;;;22.23;49.65;99534.97;5112208;28;19919;-52
2021/05/27 04:57:14;;;;;;;;;;;;;;;21.81;50.27;99539.94;5111788;28;20307;-50
2021/05/27 04:59:39;;;;;;;;;;;;;;;21.70;50.73;99541.09;5111546;28;19912;-52
2021/05/27 05:02:04;;;;;;;;;;;;;;;21.93;50.33;99538.78;5111939;28;20302;-50
2021/05/27 05:04:29;;;;;;;;;;;;;;;22.28;49.69;99548.53;5111931;28;19923;-52
2021/05/27 05:06:55;;;;;;;;;;;;;;;22.50;48.99;99549.94;5111643;28;20291;-50
2021/05/27 05:09:20;;;;;;;;;;;;;;;22.61;48.74;99549.53;5111732;28;19919;-52
2021/05/27 05:11:45;;;;;;;;;;;;;;;22.79;48.38;99552.56;5111794;28;20213;-51
2021/05/27 05:14:11;;;;;;;;;;;;;;;22.96;47.86;99550.22;5029645;28;1879863;-52
2021/05/27 05:16:36;;;;;;;;;;;;;;;22.77;48.20;99552.06;5085419;28;20319;-50
2021/05/27 05:19:01;;;;;;;;;;;;;;;22.52;48.61;99547.72;5092057;28;20368;-37
2021/05/27 05:21:27;;;;;;;;;;;;;;;22.42;48.94;99560.28;5092928;28;20522;-36
2021/05/27 05:23:52;;;;;;;;;;;;;;;22.52;48.50;99559.38;5096495;28;20003;-39
2021/05/27 05:26:17;;;;;;;;;;;;;;;22.63;48.87;99557.38;5092889;28;19912;-51
2021/05/27 05:28:42;;;;;;;;;;;;;;;22.45;50.30;99558.94;5093008;28;19919;-52
2021/05/27 05:31:08;;;;;;;;;;;;;;;22.67;48.67;99558.41;5092914;28;19968;-51
2021/05/27 05:33:33;;;;;;;;;;;;;;;22.86;48.07;99565.81;5092673;28;20356;-50
2021/05/27 05:35:59;;;;;;;;;;;;;;;22.45;49.13;99561.66;5092742;28;19912;-50
2021/05/27 05:38:24;;;;;;;;;;;;;;;22.86;48.48;99558.47;5092726;28;19962;-52
2021/05/27 05:40:49;;;;;;;;;;;;;;;23.09;47.90;99556.84;5092974;28;19912;-52
2021/05/27 05:43:15;;;;;;;;;;;;;;;22.70;48.72;99563.28;5091896;28;19916;-53
2021/05/27 05:45:40;;;;;;;;;;;;;;;22.94;50.20;99559.72;5092230;28;20038;-51
2021/05/27 05:48:08;;;;;;;;;;;;;;;22.97;50.22;99562.69;5092336;28;19912;-49
2021/05/27 05:50:45;;;;;;;;;;;;;;;23.60;47.25;99574.38;5092217;28;19912;-52
2021/05/27 05:53:11;;;;;;;;;;;;;;;23.73;46.95;99570.91;5091998;28;19912;-50
2021/05/27 05:55:36;;;;;;;;;;;;;;;24.14;45.74;99574.91;5091920;28;19912;-52
2021/05/27 05:58:02;;;;;;;;;;;;;;;24.49;44.96;99569.97;5091911;28;19916;-55
2021/05/27 06:00:27;;;;;;;;;;;;;;;24.17;46.61;99572.41;5092071;28;19916;-49
2021/05/27 06:02:53;;;;;;;;;;;;;;;24.52;45.17;99569.38;5092080;28;19935;-52
2021/05/27 06:05:18;;;;;;;;;;;;;;;24.17;45.73;99572.41;5091953;28;20104;-49
2021/05/27 06:07:44;;;;;;;;;;;;;;;24.90;46.82;99567.28;5084638;28;20330;-49
2021/05/27 06:10:09;;;;;;;;;;;;;;;25.72;43.60;99570.16;5071161;28;19927;-51
2021/05/27 06:12:34;;;;;;;;;;;;;;;26.14;41.83;99573.53;5071310;28;19920;-51
2021/05/27 06:15:00;;;;;;;;;;;;;;;26.34;42.03;99566.75;5071064;28;20030;-51
2021/05/27 06:17:25;;;;;;;;;;;;;;;26.09;41.27;99566.28;5070408;28;19913;-51
2021/05/27 06:19:50;;;;;;;;;;;;;;;26.28;42.21;99563.34;5089295;28;19913;-51
2021/05/27 06:22:16;;;;;;;;;;;;;;;26.63;41.42;99563.53;5093757;28;19916;-51
2021/05/27 06:24:41;;;;;;;;;;;;;;;27.51;39.74;99556.38;5111320;28;20002;-52
2021/05/27 06:27:06;;;;;;;;;;;;;;;28.03;38.98;99572.78;5111472;28;20316;-52
2021/05/27 06:29:31;;;;;;;;;;;;;;;28.11;38.35;99575.81;5111415;28;19934;-52
2021/05/27 06:31:57;;;;;;;;;;;;;;;28.45;38.02;99572.97;5092744;28;19934;-50
2021/05/27 06:34:22;;;;;;;;;;;;;;;27.98;38.17;99564.72;5090360;28;19912;-50
2021/05/27 06:36:47;;;;;;;;;;;;;;;28.14;38.01;99572.41;5090177;28;19941;-52
2021/05/27 06:39:12;;;;;;;;;;;;;;;28.27;38.98;99566.78;5090875;28;20337;-51
2021/05/27 06:41:38;;;;;;;;;;;;;;;27.50;39.33;99574.69;5090426;28;19994;-55
2021/05/27 06:44:03;;;;;;;;;;;;;;;26.20;40.56;99574.19;5090527;28;20491;-51
2021/05/27 06:46:29;;;;;;;;;;;;;;;25.73;42.53;99567.13;5089561;28;19912;-52
2021/05/27 06:48:55;;;;;;;;;;;;;;;26.41;41.59;99569.84;5082060;28;19944;-51
2021/05/27 06:51:20;;;;;;;;;;;;;;;26.23;41.43;99565.41;5070596;28;19916;-50
2021/05/27 06:53:46;;;;;;;;;;;;;;;26.69;39.97;99567.75;5069293;28;19984;-52
2021/05/27 06:56:11;;;;;;;;;;;;;;;26.64;40.17;99570.63;5069565;28;19991;-52
2021/05/27 06:58:36;;;;;;;;;;;;;;;26.92;40.14;99565.75;5069587;28;19974;-53
2021/05/27 07:01:02;;;;;;;;;;;;;;;26.72;38.90;99567.09;5070344;28;20399;-51
2021/05/27 07:03:28;;;;;;;;;;;;;;;26.25;39.54;99568.63;5089944;28;20323;-52
2021/05/27 07:05:53;;;;;;;;;;;;;;;26.53;39.24;99552.88;5089502;28;19912;-52
2021/05/27 07:08:19;;;;;;;;;;;;;;;26.78;38.82;99564.25;5089541;28;20353;-52
2021/05/27 07:10:45;;;;;;;;;;;;;;;26.28;40.02;99571.53;5089253;28;20441;-52
2021/05/27 07:13:10;;;;;;;;;;;;;;;25.85;41.51;99573.94;5089923;28;19956;-49
2021/05/27 07:15:36;;;;;;;;;;;;;;;25.31;43.26;99573.81;5088915;28;19931;-52
2021/05/27 07:18:01;;;;;;;;;;;;;;;24.71;44.26;99575.56;5086750;28;19916;-49
2021/05/27 07:20:27;;;;;;;;;;;;;;;23.43;47.04;99572.97;5091073;28;20399;-50
2021/05/27 07:22:53;;;;;;;;;;;;;;;23.50;47.78;99572.59;5093556;28;19920;-50
2021/05/27 07:25:20;;;;;;;;;;;;;;;23.02;49.24;99559.13;5094567;28;19916;-52
2021/05/27 07:27:47;;;;;;;;;;;;;;;22.98;48.42;99553.44;5089843;28;19919;-52
2021/05/27 07:30:13;;;;;;;;;;;;;;;22.14;49.44;99548.34;5089448;28;20061;-52
2021/05/27 07:32:38;;;;;;;;;;;;;;;22.42;48.84;99552.16;5089634;28;19954;-53
2021/05/27 07:35:07;;;;;;;;;;;;;;;23.29;46.83;99547.66;5089323;28;20084;-51
2021/05/27 07:37:32;;;;;;;;;;;;;;;23.50;46.42;99541.94;5089347;28;19951;-51
2021/05/27 07:39:58;;;;;;;;;;;;;;;24.06;45.49;99537.53;5089657;28;20008;-53
2021/05/27 07:42:23;;;;;;;;;;;;;;;23.67;45.96;99544.94;5089492;28;19923;-52
2021/05/27 07:44:48;;;;;;;;;;;;;;;23.71;44.35;99551.38;5089738;28;19919;-52
2021/05/27 07:47:13;;;;;;;;;;;;;;;23.73;45.87;99560.03;5089315;28;20407;-51
2021/05/27 07:49:39;;;;;;;;;;;;;;;23.93;45.82;99563.56;5089428;28;19912;-51
2021/05/27 07:52:04;;;;;;;;;;;;;;;23.25;47.39;99564.78;5089882;28;20030;-52
2021/05/27 07:54:29;;;;;;;;;;;;;;;23.20;48.42;99573.81;5089714;28;19919;-56
2021/05/27 07:56:55;;;;;;;;;;;;;;;23.10;48.60;99568.53;5088349;28;19912;-54
2021/05/27 07:59:20;;;;;;;;;;;;;;;23.55;48.33;99563.56;5089250;28;20003;-52
2021/05/27 08:01:45;;;;;;;;;;;;;;;24.10;47.75;99565.72;5089158;28;19916;-52
2021/05/27 08:04:11;;;;;;;;;;;;;;;24.71;46.16;99566.56;5089473;28;19943;-52
2021/05/27 08:06:36;;;;;;;;;;;;;;;24.68;45.95;99562.53;5091447;28;19969;-51
2021/05/27 08:09:02;;;;;;;;;;;;;;;24.51;46.54;99567.75;5093089;28;20011;-52
2021/05/27 08:11:27;;;;;;;;;;;;;;;24.37;47.23;99570.44;5093086;28;20058;-52
2021/05/27 08:13:53;;;;;;;;;;;;;;;24.15;46.29;99557.50;5092231;28;19924;-52
2021/05/27 08:16:18;;;;;;;;;;;;;;;24.33;45.55;99550.38;5092504;28;19990;-50
2021/05/27 08:18:43;;;;;;;;;;;;;;;24.94;44.39;99549.25;5091967;28;19959;-51
2021/05/27 08:21:08;;;;;;;;;;;;;;;25.64;44.05;99552.63;5093302;28;19912;-51
2021/05/27 08:23:34;;;;;;;;;;;;;;;25.49;43.29;99552.97;5107143;28;19927;-52
2021/05/27 08:25:59;;;;;;;;;;;;;;;25.69;42.89;99555.25;5112999;28;19911;-52
2021/05/27 08:28:25;;;;;;;;;;;;;;;25.84;42.65;99558.72;5112682;28;19919;-49
2021/05/27 08:30:50;;;;;;;;;;;;;;;25.68;42.24;99550.91;5113039;28;19968;-52
2021/05/27 08:33:15;;;;;;;;;;;;;;;26.14;41.44;99549.81;5111866;28;19942;-51
2021/05/27 08:35:40;;;;;;;;;;;;;;;26.29;41.14;99543.16;5111240;28;19934;-53
2021/05/27 08:38:06;;;;;;;;;;;;;;;26.25;41.49;99547.59;5111316;28;19912;-55
2021/05/27 08:40:31;;;;;;;;;;;;;;;25.28;43.89;99550.72;5109916;28;19912;-51
2021/05/27 08:42:57;;;;;;;;;;;;;;;24.48;45.97;99554.72;5111096;28;19922;-51
2021/05/27 08:45:23;;;;;;;;;;;;;;;25.22;44.00;99542.94;5110628;28;20303;-52
2021/05/27 08:47:48;;;;;;;;;;;;;;;26.05;42.62;99543.50;5110393;28;19943;-50
2021/05/27 08:50:14;;;;;;;;;;;;;;;26.75;41.68;99543.84;5109933;28;20390;-52
2021/05/27 08:52:39;;;;;;;;;;;;;;;26.48;42.80;99550.28;5112429;28;20029;-52
2021/05/27 08:55:04;;;;;;;;;;;;;;;26.80;42.45;99551.09;5112381;28;20342;-51
2021/05/27 08:57:30;;;;;;;;;;;;;;;25.58;44.19;99550.34;5111019;28;19968;-53
2021/05/27 08:59:55;;;;;;;;;;;;;;;24.48;47.04;99544.66;5111759;28;19918;-51
2021/05/27 09:02:20;;;;;;;;;;;;;;;24.76;46.30;99533.81;5112038;28;20352;-53
2021/05/27 09:04:46;;;;;;;;;;;;;;;24.93;46.14;99533.22;5111718;28;20398;-53
2021/05/27 09:07:12;;;;;;;;;;;;;;;25.64;45.14;99543.66;5112339;28;19979;-50
2021/05/27 09:09:46;;;;;;;;;;;;;;;25.65;44.61;99532.44;5112204;28;19912;-50
2021/05/27 09:12:41;;;;;;;;;;;;;;;24.66;47.34;99526.69;5112273;28;19918;-51
2021/05/27 09:15:18;;;;;;;;;;;;;;;24.07;48.65;99531.81;5106723;28;19924;-52
2021/05/27 09:17:44;;;;;;;;;;;;;;;24.84;47.61;99526.88;5105617;28;19912;-50
2021/05/27 09:20:14;;;;;;;;;;;;;;;24.75;48.09;99529.47;5091329;28;19923;-52
2021/05/27 09:22:39;;;;;;;;;;;;;;;23.76;50.94;99534.19;5097850;28;20077;-51
2021/05/27 09:25:05;;;;;;;;;;;;;;;24.00;50.82;99523.22;5111541;28;20382;-50
2021/05/27 09:27:46;;;;;;;;;;;;;;;24.11;50.12;99511.06;5111816;28;19919;-53
2021/05/27 09:30:12;;;;;;;;;;;;;;;23.66;51.89;99508.00;5112311;28;19923;-53
2021/05/27 09:32:38;;;;;;;;;;;;;;;24.20;50.30;99512.00;5112231;28;19922;-52
2021/05/27 09:35:04;;;;;;;;;;;;;;;24.32;50.82;99514.22;5109633;28;20011;-53
2021/05/27 09:37:30;;;;;;;;;;;;;;;24.86;49.48;99503.69;5110349;28;19920;-54
2021/05/27 09:39:57;;;;;;;;;;;;;;;25.74;47.90;99497.06;5112082;28;20002;-59
2021/05/27 09:42:22;;;;;;;;;;;;;;;25.97;46.88;99497.91;5111750;28;20391;-52
2021/05/27 09:44:48;;;;;;;;;;;;;;;24.70;48.79;99496.97;5111656;28;19945;-57
2021/05/27 09:47:13;;;;;;;;;;;;;;;24.39;49.40;99494.81;5109605;28;19959;-53
2021/05/27 09:49:57;;;;;;;;;;;;;;;24.39;49.81;99492.09;5109837;28;19918;-49
2021/05/27 09:52:24;;;;;;;;;;;;;;;24.74;47.87;99497.97;5111024;28;19920;-51
2021/05/27 09:54:56;;;;;;;;;;;;;;;24.39;47.86;99494.81;5111230;28;19940;-53
2021/05/27 09:57:22;;;;;;;;;;;;;;;24.68;46.93;99502.69;5111398;28;19968;-50
2021/05/27 09:59:47;;;;;;;;;;;;;;;24.51;46.10;99499.75;5111094;28;19912;-52
2021/05/27 10:02:13;;;;;;;;;;;;;;;24.26;46.74;99511.91;5110856;28;20306;-51
2021/05/27 10:04:57;;;;;;;;;;;;;;;23.90;46.73;99504.41;5110767;28;19912;-52
2021/05/27 10:08:00;;;;;;;;;;;;;;;24.87;45.62;99499.06;5111318;28;19995;-53
2021/05/27 10:10:26;;;;;;;;;;;;;;;24.81;46.11;99503.81;5089278;28;19912;-51
2021/05/27 10:12:54;;;;;;;;;;;;;;;24.59;46.24;99507.22;5089413;28;19918;-52
2021/05/27 10:15:23;;;;;;;;;;;;;;;24.17;46.78;99498.19;5099634;28;19959;-52
2021/05/27 10:17:49;;;;;;;;;;;;;;;24.48;44.88;99486.75;5110018;28;19919;-52
2021/05/27 10:20:33;;;;;;;;;;;;;;;25.12;43.36;99479.44;5090849;28;19916;-59
2021/05/27 10:22:58;;;;;;;;;;;;;;;25.50;42.01;99502.84;5100626;28;19916;-53
2021/05/27 10:25:24;;;;;;;;;;;;;;;25.23;39.70;99488.22;5111732;28;19994;-53
2021/05/27 10:27:50;;;;;;;;;;;;;;;25.65;40.04;99493.50;5111434;28;19917;-53
2021/05/27 10:30:16;;;;;;;;;;;;;;;25.17;41.31;99505.75;5109997;28;19990;-48
2021/05/27 10:32:42;;;;;;;;;;;;;;;25.13;41.17;99524.63;5111608;28;20005;-52
2021/05/27 10:35:07;;;;;;;;;;;;;;;24.32;41.87;99506.06;5109963;28;19959;-53
2021/05/27 10:37:39;;;;;;;;;;;;;;;24.43;41.23;99492.28;5110086;28;19919;-58
2021/05/27 10:40:10;;;;;;;;;;;;;;;25.00;40.86;99481.91;5111638;28;19912;-58
2021/05/27 10:42:54;;;;;;;;;;;;;;;25.88;40.32;99489.66;5110757;28;19946;-53
2021/05/27 10:45:19;;;;;;;;;;;;;;;26.25;39.46;99495.78;5111285;28;19994;-52
2021/05/27 10:48:03;;;;;;;;;;;;;;;25.62;41.23;99499.56;5111253;28;20351;-52
2021/05/27 10:50:47;;;;;;;;;;;;;;;25.88;40.94;99488.84;5110809;28;19918;-51
2021/05/27 10:53:33;;;;;;;;;;;;;;;25.61;41.13;99496.06;5110994;28;20349;-51
2021/05/27 10:55:58;;;;;;;;;;;;;;;24.84;42.87;99481.41;5110979;28;19916;-52
2021/05/27 10:58:43;;;;;;;;;;;;;;;25.12;42.49;99473.19;5111237;28;19960;-50
2021/05/27 11:01:08;;;;;;;;;;;;;;;25.73;41.99;99457.34;5111192;28;20340;-53
2021/05/27 11:03:43;;;;;;;;;;;;;;;25.96;40.79;99479.94;5111155;28;20022;-52
2021/05/27 11:06:18;;;;;;;;;;;;;;;25.43;40.76;99475.22;5111170;28;19912;-52
2021/05/27 11:08:43;;;;;;;;;;;;;;;24.96;42.30;99457.22;5111389;28;19952;-52
2021/05/27 11:11:45;;;;;;;;;;;;;;;25.51;41.36;99447.25;5111257;28;20371;-53
2021/05/27 11:14:23;;;;;;;;;;;;;;;25.13;41.97;99451.13;5088326;28;19924;-52
2021/05/27 11:17:04;;;;;;;;;;;;;;;25.49;38.31;99438.59;5108681;28;19912;-52
2021/05/27 11:22:37;;;;;;;;;;;;;;;25.26;39.29;99448.66;5093727;28;19931;-51
2021/05/27 11:25:09;;;;;;;;;;;;;;;25.62;38.77;99445.09;5111339;28;20294;-52
2021/05/27 11:27:34;;;;;;;;;;;;;;;25.72;38.34;99442.91;5111426;28;20302;-51
2021/05/27 11:30:15;;;;;;;;;;;;;;;26.42;38.03;99435.06;5111886;28;19912;-52
2021/05/27 11:32:40;;;;;;;;;;;;;;;25.89;36.36;99433.22;5101291;28;20414;-51
2021/05/27 11:35:06;;;;;;;;;;;;;;;25.17;37.53;99446.66;5090809;28;19912;-50
2021/05/27 11:37:34;;;;;;;;;;;;;;;25.70;37.56;99436.16;5090873;28;19965;-50
2021/05/27 11:40:00;;;;;;;;;;;;;;;26.17;35.02;99428.41;5089765;28;19912;-50
2021/05/27 11:42:25;;;;;;;;;;;;;;;25.62;36.45;99429.53;5094418;28;19923;-51
2021/05/27 11:44:57;;;;;;;;;;;;;;;26.20;36.29;99403.25;5093687;28;19916;-50
2021/05/27 11:47:22;;;;;;;;;;;;;;;26.46;34.53;99411.47;5094645;28;20447;-51
2021/05/27 11:50:20;;;;;;;;;;;;;;;25.95;35.55;99410.19;5094828;28;19948;-51
2021/05/27 11:52:45;;;;;;;;;;;;;;;26.20;36.04;99394.22;5071231;28;19916;-53
2021/05/27 11:55:11;;;;;;;;;;;;;;;26.81;34.55;99400.66;5094167;28;19980;-50
2021/05/27 11:57:40;;;;;;;;;;;;;;;26.42;35.55;99398.78;5094525;28;20451;-52
2021/05/27 12:00:06;;;;;;;;;;;;;;;26.20;36.41;99405.13;5093765;28;19912;-50
2021/05/27 12:02:48;;;;;;;;;;;;;;;26.28;36.74;99401.66;5094021;28;19923;-49
2021/05/27 12:05:25;;;;;;;;;;;;;;;26.20;36.66;99392.34;5094050;28;19912;-52
2021/05/27 12:07:57;;;;;;;;;;;;;;;27.05;36.28;99391.19;5093379;28;20408;-50
2021/05/27 12:10:23;;;;;;;;;;;;;;;27.16;35.77;99389.72;5094211;28;20433;-50
2021/05/27 12:12:49;;;;;;;;;;;;;;;27.54;35.62;99389.06;5094214;28;19915;-52
2021/05/27 12:15:16;;;;;;;;;;;;;;;27.40;35.80;99389.25;5093653;28;19928;-50
2021/05/27 12:17:44;;;;;;;;;;;;;;;26.98;37.29;99388.94;5093652;28;20352;-52
2021/05/27 12:20:13;;;;;;;;;;;;;;;27.26;35.49;99383.16;5093858;28;20344;-52
2021/05/27 12:22:44;;;;;;;;;;;;;;;26.84;36.85;99404.66;5099750;28;19980;-51
2021/05/27 12:25:09;;;;;;;;;;;;;;;27.30;35.85;99398.59;5114271;28;19912;-53
2021/05/27 12:27:38;;;;;;;;;;;;;;;26.13;38.18;99391.97;5114204;28;19996;-52
2021/05/27 12:30:04;;;;;;;;;;;;;;;26.44;37.89;99378.25;5113681;28;19924;-52
2021/05/27 12:32:29;;;;;;;;;;;;;;;26.24;38.10;99374.22;5113511;28;19912;-51
2021/05/27 12:34:54;;;;;;;;;;;;;;;26.20;37.57;99381.44;5113564;28;19919;-51
2021/05/27 12:37:20;;;;;;;;;;;;;;;26.17;37.84;99383.97;5113291;28;19915;-53
2021/05/27 12:39:45;;;;;;;;;;;;;;;25.38;40.21;99386.31;5112079;28;20006;-51
2021/05/27 12:42:10;;;;;;;;;;;;;;;25.21;41.14;99386.97;5113231;27;19919;-49
2021/05/27 12:44:44;;;;;;;;;;;;;;;26.14;39.52;99388.94;5113396;28;19912;-52
2021/05/27 12:47:13;;;;;;;;;;;;;;;26.00;39.43;99399.13;5113493;28;20398;-50
2021/05/27 12:49:38;;;;;;;;;;;;;;;25.70;39.84;99398.84;5113159;28;19956;-50
2021/05/27 12:52:03;;;;;;;;;;;;;;;25.94;39.52;99384.06;5112267;28;19918;-50
2021/05/27 12:54:29;;;;;;;;;;;;;;;26.55;38.75;99389.69;5094289;28;20444;-52
2021/05/27 12:57:01;;;;;;;;;;;;;;;25.93;39.67;99383.25;5093809;28;19916;-53